Airports Morocco Rabat-Salé Airport

Rabat-Salé Airport (GMME / RBA)

Facts about Rabat-Salé Airport

Name Rabat-Salé Airport
City Rabat
Country Morocco
ICAO code GMME
IATA code RBA
Elevation 84.1248 meters (276 feet)

Weather

METAR

Metar data retrieved Saturday, 20 July 2024 at 00:25 UTC (3 minutes ago)

GMME 200000Z 00000KT 5000 FEW020 SCT066 24/24 Q1015 NOSIG

Live traffic

Navigraph Charts (account required)